Time;durP1;ratioP1;P1;durP2;ratioP2;P2;SDS_P1;SDS_P2;PMS_P1;PMS_P2;Temp;Humidity;BMP_temperature;BMP_pressure;BME280_temperature;BME280_humidity;BME280_pressure;Samples;Min_cycle;Max_cycle;Signal;HPM_P1;HPM_P2
2024/01/21 00:01:58;;;;;;;26.87;11.15;;;0.40;64.30;;;;;;2263601;55;21705;-66
2024/01/21 00:04:25;;;;;;;24.37;10.57;;;0.30;64.30;;;;;;2493711;54;21029;-66
2024/01/21 00:06:51;;;;;;;26.35;10.88;;;0.30;64.20;;;;;;2483453;55;20966;-66
2024/01/21 00:09:17;;;;;;;28.83;11.18;;;0.20;64.10;;;;;;2264754;55;21713;-65
2024/01/21 00:11:45;;;;;;;31.77;12.32;;;0.10;64.10;;;;;;2258941;55;20948;-65
2024/01/21 00:14:11;;;;;;;33.20;12.70;;;0.10;64.20;;;;;;2262778;55;21038;-65
2024/01/21 00:16:37;;;;;;;28.70;13.15;;;0.10;64.30;;;;;;2265046;55;21078;-65
2024/01/21 00:19:04;;;;;;;42.65;17.02;;;0.00;64.20;;;;;;2265862;55;21109;-65
2024/01/21 00:21:30;;;;;;;39.38;15.77;;;-0.10;64.10;;;;;;2265279;55;20943;-65
2024/01/21 00:23:57;;;;;;;36.03;15.57;;;-0.10;64.30;;;;;;2481692;54;20964;-66
2024/01/21 00:26:23;;;;;;;41.08;16.27;;;-0.10;64.30;;;;;;2264283;55;21022;-65
2024/01/21 00:28:49;;;;;;;40.67;15.45;;;-0.20;64.30;;;;;;2264568;55;21022;-65
2024/01/21 00:31:16;;;;;;;36.60;14.70;;;-0.20;64.50;;;;;;2493498;54;20979;-65
2024/01/21 00:33:42;;;;;;;39.60;14.30;;;-0.30;64.50;;;;;;2265044;55;20943;-65
2024/01/21 00:36:11;;;;;;;27.73;12.30;;;-0.30;64.70;;;;;;2264439;55;21453;-66
2024/01/21 00:38:38;;;;;;;30.75;13.15;;;-0.30;64.80;;;;;;2265623;55;21400;-65
2024/01/21 00:41:05;;;;;;;38.67;14.48;;;-0.30;64.90;;;;;;2264266;55;21827;-66
2024/01/21 00:43:31;;;;;;;31.90;13.32;;;-0.30;64.90;;;;;;2265267;55;20982;-66
2024/01/21 00:46:04;;;;;;;34.30;13.62;;;-0.40;65.00;;;;;;2492559;54;20997;-66
2024/01/21 00:48:30;;;;;;;31.65;12.45;;;-0.40;65.00;;;;;;2236834;57;20959;-65
2024/01/21 00:50:56;;;;;;;31.92;12.65;;;-0.40;64.90;;;;;;2257016;56;21726;-66
2024/01/21 00:53:23;;;;;;;28.58;13.23;;;-0.40;64.90;;;;;;2265363;55;20962;-65
2024/01/21 00:55:50;;;;;;;37.45;12.02;;;-0.40;64.80;;;;;;2494432;54;20946;-65
2024/01/21 00:58:16;;;;;;;23.77;10.00;;;-0.50;64.70;;;;;;2494124;54;20975;-65
2024/01/21 01:00:42;;;;;;;25.35;10.38;;;-0.50;64.50;;;;;;2264995;55;21018;-65
2024/01/21 01:03:09;;;;;;;22.95;9.93;;;-0.50;64.30;;;;;;2494115;54;21791;-66
2024/01/21 01:05:36;;;;;;;24.02;9.73;;;-0.50;64.30;;;;;;2493939;54;20999;-66
2024/01/21 01:08:03;;;;;;;26.17;10.45;;;-0.60;64.10;;;;;;2493404;54;21218;-65
2024/01/21 01:10:30;;;;;;;25.05;10.55;;;-0.60;64.10;;;;;;2263631;55;21041;-66
2024/01/21 01:12:58;;;;;;;21.52;9.13;;;-0.70;64.00;;;;;;2250490;55;20954;-66
2024/01/21 01:15:25;;;;;;;25.33;10.50;;;-0.70;64.00;;;;;;2260957;55;21023;-65
2024/01/21 01:17:51;;;;;;;21.52;9.48;;;-0.70;64.00;;;;;;2493553;54;21550;-67
2024/01/21 01:20:18;;;;;;;22.40;9.27;;;-0.80;63.90;;;;;;2487539;54;20977;-66
2024/01/21 01:22:44;;;;;;;24.73;9.82;;;-0.80;63.90;;;;;;2257238;55;20965;-65
2024/01/21 01:25:10;;;;;;;26.45;10.70;;;-0.80;64.00;;;;;;2492041;54;21706;-65
2024/01/21 01:27:37;;;;;;;29.17;11.60;;;-0.90;64.00;;;;;;2264024;55;21504;-66
2024/01/21 01:30:03;;;;;;;30.83;13.43;;;-0.90;64.20;;;;;;2493023;54;21002;-66
2024/01/21 01:32:30;;;;;;;31.27;12.57;;;-0.90;64.30;;;;;;2264774;55;20934;-65
2024/01/21 01:35:00;;;;;;;35.13;13.82;;;-0.90;64.40;;;;;;2264084;55;20970;-65
2024/01/21 01:37:26;;;;;;;34.38;13.20;;;-0.90;64.50;;;;;;2494600;54;21711;-65
2024/01/21 01:39:53;;;;;;;33.33;12.70;;;-0.90;64.60;;;;;;2264433;55;21028;-65
2024/01/21 01:42:19;;;;;;;31.17;13.70;;;-0.90;64.60;;;;;;2264384;55;20998;-65
2024/01/21 01:44:48;;;;;;;35.22;13.80;;;-1.00;64.60;;;;;;2264143;55;21098;-65
2024/01/21 01:47:15;;;;;;;28.70;12.65;;;-0.90;64.70;;;;;;2494196;54;21258;-65
2024/01/21 01:49:42;;;;;;;30.95;13.25;;;-0.90;64.70;;;;;;2265437;55;21306;-65
2024/01/21 01:52:10;;;;;;;30.40;12.13;;;-0.90;64.80;;;;;;2264145;55;21333;-65
2024/01/21 01:54:37;;;;;;;23.95;10.05;;;-0.90;64.70;;;;;;2264814;55;21030;-65
2024/01/21 01:57:04;;;;;;;38.53;15.45;;;-1.00;64.50;;;;;;2256176;55;21010;-65
2024/01/21 01:59:30;;;;;;;33.83;14.13;;;-1.00;64.40;;;;;;2264877;55;21555;-65
2024/01/21 02:01:56;;;;;;;33.03;14.25;;;-1.00;64.40;;;;;;2263871;55;20931;-65
2024/01/21 02:04:22;;;;;;;35.83;14.87;;;-1.00;64.30;;;;;;2494763;54;20962;-65
2024/01/21 02:06:49;;;;;;;22.58;10.15;;;-1.00;64.30;;;;;;2494723;54;20994;-65
2024/01/21 02:09:15;;;;;;;15.88;7.00;;;-1.00;64.30;;;;;;2263730;55;20950;-65
2024/01/21 02:11:41;;;;;;;13.38;5.90;;;-1.10;64.20;;;;;;2493173;54;20979;-65
2024/01/21 02:14:08;;;;;;;10.35;5.20;;;-1.10;64.40;;;;;;2263968;55;21030;-65
2024/01/21 02:16:34;;;;;;;9.73;4.68;;;-1.10;64.60;;;;;;2265915;55;21859;-65
2024/01/21 02:19:00;;;;;;;18.65;7.60;;;-1.10;64.80;;;;;;2494713;54;20978;-65
2024/01/21 02:21:27;;;;;;;19.80;9.00;;;-1.10;65.00;;;;;;2264874;55;20935;-65
2024/01/21 02:23:53;;;;;;;23.20;9.95;;;-1.10;65.00;;;;;;2265158;55;20986;-66
2024/01/21 02:26:20;;;;;;;21.60;9.70;;;-1.10;65.00;;;;;;2494719;54;21718;-65
2024/01/21 02:28:46;;;;;;;22.08;10.18;;;-1.10;65.00;;;;;;2265875;55;20947;-65
2024/01/21 02:31:14;;;;;;;28.25;11.63;;;-1.10;64.90;;;;;;2263905;55;20938;-65
2024/01/21 02:33:43;;;;;;;28.20;11.77;;;-1.10;64.70;;;;;;2265168;55;21268;-65
2024/01/21 02:36:09;;;;;;;25.30;10.95;;;-1.10;64.70;;;;;;2266397;55;20955;-65
2024/01/21 02:38:35;;;;;;;24.85;10.27;;;-1.10;64.70;;;;;;2263934;55;20971;-65
2024/01/21 02:41:02;;;;;;;25.20;10.60;;;-1.10;65.40;;;;;;2265027;55;20966;-65
2024/01/21 02:43:28;;;;;;;22.60;10.13;;;-1.10;64.60;;;;;;2264620;55;21085;-65
2024/01/21 02:45:54;;;;;;;26.92;12.35;;;-1.10;64.50;;;;;;2255968;55;21014;-65
2024/01/21 02:48:21;;;;;;;28.48;12.00;;;-1.10;64.40;;;;;;2494120;54;21006;-65
2024/01/21 02:50:51;;;;;;;29.27;12.10;;;-1.20;64.30;;;;;;2264716;55;20938;-65
2024/01/21 02:53:17;;;;;;;30.65;13.18;;;-1.20;64.30;;;;;;2494010;54;20986;-65
2024/01/21 02:55:43;;;;;;;27.87;12.25;;;-1.20;64.30;;;;;;2264566;55;21028;-66
2024/01/21 02:58:10;;;;;;;24.75;11.12;;;-1.20;64.30;;;;;;2264354;55;21057;-65
2024/01/21 03:00:36;;;;;;;25.05;10.80;;;-1.20;64.30;;;;;;2264666;55;21029;-65
2024/01/21 03:03:03;;;;;;;22.87;10.25;;;-1.20;64.40;;;;;;2264912;55;21010;-65
2024/01/21 03:05:29;;;;;;;23.85;9.52;;;-1.20;64.40;;;;;;2267777;55;21068;-66
2024/01/21 03:07:55;;;;;;;22.37;10.07;;;-1.20;64.40;;;;;;2264972;55;21273;-65
2024/01/21 03:10:22;;;;;;;23.48;9.77;;;-1.20;64.40;;;;;;2267104;55;21087;-65
2024/01/21 03:12:51;;;;;;;20.80;9.25;;;-1.20;65.10;;;;;;2264781;55;21528;-65
2024/01/21 03:15:17;;;;;;;22.67;9.77;;;-1.30;64.30;;;;;;2492886;54;21065;-65
2024/01/21 03:17:43;;;;;;;22.45;9.77;;;-1.20;64.40;;;;;;2264779;55;20978;-65
2024/01/21 03:20:11;;;;;;;20.55;8.85;;;-1.30;64.30;;;;;;2492846;54;21018;-65
2024/01/21 03:22:37;;;;;;;21.17;9.45;;;-1.30;64.30;;;;;;2257978;56;21761;-65
2024/01/21 03:25:04;;;;;;;22.87;9.63;;;-1.30;64.20;;;;;;2264837;55;20950;-65
2024/01/21 03:27:30;;;;;;;23.05;9.23;;;-1.30;64.20;;;;;;2264807;55;21428;-65
2024/01/21 03:29:56;;;;;;;22.35;9.98;;;-1.30;64.20;;;;;;2493300;54;21254;-66
2024/01/21 03:32:23;;;;;;;22.55;10.05;;;-1.30;64.10;;;;;;2265058;55;20982;-65
2024/01/21 03:34:51;;;;;;;22.52;9.70;;;-1.30;64.10;;;;;;2494464;54;20928;-65
2024/01/21 03:37:18;;;;;;;23.62;10.68;;;-1.40;64.00;;;;;;2494277;54;21014;-65
2024/01/21 03:39:45;;;;;;;24.45;11.40;;;-1.40;64.10;;;;;;2494561;54;21811;-66
2024/01/21 03:42:11;;;;;;;26.75;11.45;;;-1.40;64.20;;;;;;2493476;54;21027;-65
2024/01/21 03:44:38;;;;;;;23.87;9.98;;;-1.30;64.30;;;;;;2264772;55;20958;-65
2024/01/21 03:47:04;;;;;;;21.77;9.23;;;-1.40;64.20;;;;;;2264559;55;21467;-65
2024/01/21 03:49:30;;;;;;;22.10;9.68;;;-1.40;64.20;;;;;;2264458;55;21014;-65
2024/01/21 03:51:57;;;;;;;23.48;9.30;;;-1.40;64.20;;;;;;2264383;56;21014;-65
2024/01/21 03:54:28;;;;;;;20.80;8.82;;;-1.40;64.20;;;;;;2494161;54;20959;-65
2024/01/21 03:56:54;;;;;;;23.10;10.63;;;-1.40;64.10;;;;;;2264996;55;21319;-65
2024/01/21 03:59:20;;;;;;;21.62;9.07;;;-1.30;64.20;;;;;;2264987;55;20978;-65
2024/01/21 04:01:47;;;;;;;19.62;8.65;;;-1.40;64.20;;;;;;2265129;55;21007;-65
2024/01/21 04:04:16;;;;;;;19.40;8.30;;;-1.40;64.20;;;;;;2264016;55;20947;-65
2024/01/21 04:06:43;;;;;;;16.48;6.80;;;-1.40;64.20;;;;;;2263565;55;22039;-65
2024/01/21 04:09:10;;;;;;;19.83;9.23;;;-1.40;64.20;;;;;;2257174;55;21786;-66
2024/01/21 04:11:36;;;;;;;18.52;8.30;;;-1.40;64.20;;;;;;2494313;54;21022;-65
2024/01/21 04:14:03;;;;;;;18.00;7.47;;;-1.40;64.20;;;;;;2264832;55;21140;-65
2024/01/21 04:16:29;;;;;;;17.00;7.07;;;-1.40;64.30;;;;;;2264695;55;20950;-65
2024/01/21 04:18:55;;;;;;;18.30;8.05;;;-1.40;64.30;;;;;;2494628;54;21058;-65
2024/01/21 04:21:22;;;;;;;19.67;7.80;;;-1.40;64.40;;;;;;2264989;55;20919;-64
2024/01/21 04:23:48;;;;;;;15.15;6.75;;;-1.40;64.50;;;;;;2494872;54;20998;-65
2024/01/21 04:26:15;;;;;;;16.12;7.45;;;-1.40;64.50;;;;;;2264655;55;21503;-65
2024/01/21 04:28:41;;;;;;;15.85;7.40;;;-1.40;64.50;;;;;;2265185;55;20966;-65
2024/01/21 04:31:07;;;;;;;17.85;7.47;;;-1.40;65.10;;;;;;2494033;54;21023;-66
2024/01/21 04:33:35;;;;;;;16.87;7.30;;;-1.40;64.50;;;;;;2494339;54;20950;-66
2024/01/21 04:36:03;;;;;;;17.73;7.12;;;-1.40;64.50;;;;;;2494323;54;20955;-66
2024/01/21 04:38:29;;;;;;;16.50;7.22;;;-1.40;64.50;;;;;;2264734;55;20962;-66
2024/01/21 04:40:55;;;;;;;14.70;6.85;;;-1.40;64.50;;;;;;2264816;55;21067;-65
2024/01/21 04:43:21;;;;;;;18.15;7.68;;;-1.30;64.60;;;;;;2264821;55;21443;-65
2024/01/21 04:45:58;;;;;;;13.48;6.22;;;-1.30;64.60;;;;;;2265647;55;20950;-65
2024/01/21 04:48:24;;;;;;;14.60;6.43;;;-1.40;64.50;;;;;;2494636;54;21437;-65
2024/01/21 04:50:51;;;;;;;13.65;5.85;;;-1.40;64.50;;;;;;2265039;55;20967;-66
2024/01/21 04:53:17;;;;;;;12.43;5.43;;;-1.40;64.50;;;;;;2494157;54;21014;-65
2024/01/21 04:55:46;;;;;;;12.90;5.87;;;-1.30;64.70;;;;;;2493924;54;21307;-65
2024/01/21 04:58:13;;;;;;;13.62;6.28;;;-1.30;64.60;;;;;;2264902;55;21475;-66
2024/01/21 05:00:39;;;;;;;16.08;6.30;;;-1.40;64.50;;;;;;2264439;55;21026;-65
2024/01/21 05:03:05;;;;;;;15.10;6.43;;;-1.40;64.50;;;;;;2264948;55;20958;-67
2024/01/21 05:05:32;;;;;;;14.77;5.95;;;-1.40;64.50;;;;;;2264577;55;20915;-66
2024/01/21 05:07:58;;;;;;;14.07;5.97;;;-1.30;64.70;;;;;;2265018;55;21495;-65
2024/01/21 05:10:25;;;;;;;14.05;6.40;;;-1.40;64.60;;;;;;2494246;54;21813;-65
2024/01/21 05:12:52;;;;;;;12.02;5.45;;;-1.40;64.70;;;;;;2264624;55;20961;-65
2024/01/21 05:15:19;;;;;;;11.02;5.18;;;-1.30;64.80;;;;;;2258310;55;20975;-66
2024/01/21 05:17:45;;;;;;;13.65;5.82;;;-1.30;64.90;;;;;;2265024;55;20962;-65
2024/01/21 05:20:11;;;;;;;11.27;4.65;;;-1.30;64.90;;;;;;2264700;55;20950;-65
2024/01/21 05:22:38;;;;;;;9.95;4.18;;;-1.30;64.90;;;;;;2494253;54;20967;-65
2024/01/21 05:25:05;;;;;;;8.88;3.58;;;-1.30;64.90;;;;;;2264514;55;21061;-64
2024/01/21 05:27:31;;;;;;;8.40;3.87;;;-1.30;65.00;;;;;;2494151;54;20939;-66
2024/01/21 05:29:58;;;;;;;9.20;4.18;;;-1.20;65.20;;;;;;2263966;55;21046;-65
2024/01/21 05:32:24;;;;;;;10.18;4.07;;;-1.20;65.20;;;;;;2264430;55;20947;-65
2024/01/21 05:34:50;;;;;;;9.60;4.65;;;-1.40;65.10;;;;;;2265253;55;21751;-65
2024/01/21 05:37:17;;;;;;;13.48;5.82;;;-1.20;65.40;;;;;;2264805;55;21085;-66
2024/01/21 05:39:43;;;;;;;14.40;7.20;;;-1.20;65.40;;;;;;2264871;55;20962;-65
2024/01/21 05:42:09;;;;;;;14.80;7.07;;;-1.20;65.50;;;;;;2259775;55;21024;-65
2024/01/21 05:44:36;;;;;;;12.68;6.45;;;-1.20;65.60;;;;;;2262389;55;20945;-65
2024/01/21 05:47:02;;;;;;;15.40;7.03;;;-1.10;65.70;;;;;;2265028;55;20950;-65
2024/01/21 05:49:29;;;;;;;14.48;6.20;;;-1.10;65.80;;;;;;2481773;54;21937;-65
2024/01/21 05:51:55;;;;;;;11.70;5.78;;;-1.10;65.80;;;;;;2493314;54;20958;-65
2024/01/21 05:54:22;;;;;;;11.82;5.87;;;-1.00;65.80;;;;;;2482267;54;20988;-65
2024/01/21 05:56:48;;;;;;;14.02;6.43;;;-1.00;65.80;;;;;;2263402;55;21014;-66
2024/01/21 05:59:17;;;;;;;15.63;6.10;;;-1.00;65.70;;;;;;2267103;55;21018;-66
2024/01/21 06:01:49;;;;;;;15.23;6.55;;;-1.00;65.70;;;;;;2482055;54;21046;-66
2024/01/21 06:04:16;;;;;;;14.45;6.30;;;-1.00;65.70;;;;;;2264521;55;20990;-66
2024/01/21 06:06:42;;;;;;;12.37;5.80;;;-0.90;65.70;;;;;;2264662;55;21053;-65
2024/01/21 06:09:09;;;;;;;11.82;5.97;;;-0.90;65.60;;;;;;2492759;54;20972;-65
2024/01/21 06:11:35;;;;;;;12.20;5.60;;;-0.90;65.60;;;;;;2264779;55;21502;-65
2024/01/21 06:14:02;;;;;;;15.70;6.62;;;-0.90;65.50;;;;;;2265432;56;20967;-65
2024/01/21 06:16:31;;;;;;;15.13;7.03;;;-0.90;65.40;;;;;;2494272;54;21116;-65
2024/01/21 06:18:58;;;;;;;12.23;6.40;;;-0.90;65.40;;;;;;2492122;54;20947;-65
2024/01/21 06:21:24;;;;;;;14.48;7.25;;;-0.90;65.40;;;;;;2263610;55;20936;-65
2024/01/21 06:23:51;;;;;;;15.52;6.75;;;-0.90;65.30;;;;;;2260157;56;21022;-65
2024/01/21 06:26:20;;;;;;;15.88;6.97;;;-0.90;65.30;;;;;;2265402;55;21443;-65
2024/01/21 06:28:47;;;;;;;14.70;6.85;;;-0.80;65.30;;;;;;2267257;55;21071;-65
2024/01/21 06:31:13;;;;;;;15.57;6.55;;;-0.90;65.30;;;;;;2481963;55;21448;-66
2024/01/21 06:33:40;;;;;;;12.93;6.05;;;-0.90;65.40;;;;;;2263698;55;21389;-65
2024/01/21 06:36:07;;;;;;;12.45;5.62;;;-0.80;65.50;;;;;;2494504;54;21574;-65
2024/01/21 06:38:33;;;;;;;10.70;5.25;;;-0.80;65.50;;;;;;2264828;55;20962;-65
2024/01/21 06:41:00;;;;;;;11.60;5.80;;;-0.80;65.40;;;;;;2264279;55;21014;-65
2024/01/21 06:43:26;;;;;;;12.02;5.62;;;-0.80;65.50;;;;;;2482449;54;20961;-65
2024/01/21 06:45:55;;;;;;;8.80;4.85;;;-0.80;65.50;;;;;;2263661;55;20954;-66
2024/01/21 06:48:22;;;;;;;10.60;4.97;;;-0.80;65.60;;;;;;2265364;55;21325;-65
2024/01/21 06:50:50;;;;;;;10.90;5.45;;;-0.80;65.60;;;;;;2267740;55;21455;-66
2024/01/21 06:53:17;;;;;;;11.12;5.25;;;-0.80;65.60;;;;;;2254614;55;21693;-66
2024/01/21 06:55:45;;;;;;;13.85;6.18;;;-0.80;65.60;;;;;;2268480;55;20962;-66
2024/01/21 06:58:12;;;;;;;12.77;5.70;;;-0.80;65.60;;;;;;2254410;56;20935;-66
2024/01/21 07:00:39;;;;;;;16.42;6.45;;;-0.70;65.70;;;;;;2265212;55;21019;-66
2024/01/21 07:03:05;;;;;;;12.95;6.03;;;-0.70;65.70;;;;;;2265600;55;21027;-65
2024/01/21 07:05:32;;;;;;;11.88;5.60;;;-0.70;65.70;;;;;;2264469;55;21669;-65
2024/01/21 07:07:59;;;;;;;12.80;5.75;;;-0.70;65.60;;;;;;2264143;55;20952;-66
2024/01/21 07:10:25;;;;;;;10.25;5.28;;;-0.70;65.50;;;;;;2264855;55;20978;-66
2024/01/21 07:12:55;;;;;;;13.60;5.40;;;-0.70;65.50;;;;;;2264445;55;21026;-65
2024/01/21 07:15:22;;;;;;;13.23;6.03;;;-0.70;65.40;;;;;;2494188;54;20986;-65
2024/01/21 07:17:49;;;;;;;11.48;6.07;;;-0.70;65.40;;;;;;2264641;55;20978;-65
2024/01/21 07:20:15;;;;;;;13.52;6.43;;;-0.70;65.30;;;;;;2494314;54;20955;-65
2024/01/21 07:22:41;;;;;;;11.55;6.22;;;-0.70;65.20;;;;;;2494036;54;21470;-66
2024/01/21 07:25:08;;;;;;;15.15;7.28;;;-0.70;65.20;;;;;;2264501;55;21014;-65
2024/01/21 07:27:35;;;;;;;15.10;8.35;;;-0.70;65.20;;;;;;2264824;55;20995;-66
2024/01/21 07:30:01;;;;;;;13.52;6.82;;;-0.70;65.30;;;;;;2493805;54;20950;-65
2024/01/21 07:32:27;;;;;;;14.02;7.47;;;-0.70;65.30;;;;;;2265013;55;21090;-66
2024/01/21 07:34:54;;;;;;;16.00;7.55;;;-0.70;65.30;;;;;;2264187;55;20974;-66
2024/01/21 07:37:20;;;;;;;11.25;6.12;;;-0.70;65.30;;;;;;2265122;55;21026;-66
2024/01/21 07:39:46;;;;;;;14.13;7.03;;;-0.70;65.30;;;;;;2264194;55;21319;-65
2024/01/21 07:42:12;;;;;;;13.02;6.70;;;-0.70;65.30;;;;;;2263585;55;20958;-65
2024/01/21 07:44:39;;;;;;;15.40;6.95;;;-0.70;65.30;;;;;;2265066;55;20935;-67
2024/01/21 07:47:05;;;;;;;13.75;7.10;;;-0.70;65.30;;;;;;2493799;54;21722;-65
2024/01/21 07:49:31;;;;;;;13.02;6.28;;;-0.70;65.30;;;;;;2494626;54;21431;-66
2024/01/21 07:51:57;;;;;;;15.70;7.50;;;-0.70;65.40;;;;;;2480224;55;21858;-66
2024/01/21 07:54:24;;;;;;;14.85;7.87;;;-0.70;65.50;;;;;;2265232;55;20966;-66
2024/01/21 07:56:50;;;;;;;14.82;7.47;;;-0.70;65.60;;;;;;2263923;55;21170;-65
2024/01/21 07:59:16;;;;;;;15.93;8.70;;;-0.70;65.70;;;;;;2264194;55;21086;-65
2024/01/21 08:01:43;;;;;;;19.17;9.52;;;-0.60;65.80;;;;;;2264348;55;21426;-66
2024/01/21 08:04:09;;;;;;;16.73;9.05;;;-0.60;66.00;;;;;;2263773;55;20950;-66
2024/01/21 08:06:35;;;;;;;18.50;8.80;;;-0.60;66.10;;;;;;2494203;54;22285;-66
2024/01/21 08:09:03;;;;;;;34.00;13.00;;;-0.60;66.10;;;;;;2493631;54;20991;-66
2024/01/21 08:11:29;;;;;;;23.87;11.40;;;-0.60;66.20;;;;;;2264894;55;21034;-66
2024/01/21 08:13:56;;;;;;;19.98;10.93;;;-0.50;66.40;;;;;;2263574;55;22172;-66
2024/01/21 08:16:23;;;;;;;19.30;10.43;;;-0.50;66.40;;;;;;2264696;55;20974;-65
2024/01/21 08:18:50;;;;;;;21.87;10.85;;;-0.50;66.40;;;;;;2264274;55;21444;-66
2024/01/21 08:21:16;;;;;;;19.73;10.18;;;-0.40;66.50;;;;;;2494135;54;20961;-66
2024/01/21 08:23:43;;;;;;;18.73;10.70;;;-0.40;66.60;;;;;;2264878;55;20962;-66
2024/01/21 08:26:10;;;;;;;20.67;10.93;;;-0.40;66.60;;;;;;2264463;55;20939;-66
2024/01/21 08:28:38;;;;;;;23.80;11.07;;;-0.40;66.60;;;;;;2264831;55;21932;-66
2024/01/21 08:31:05;;;;;;;18.67;9.02;;;-0.30;66.80;;;;;;2493661;54;20975;-66
2024/01/21 08:33:33;;;;;;;20.65;10.95;;;-0.30;66.90;;;;;;2265149;55;20966;-66
2024/01/21 08:36:00;;;;;;;20.77;11.65;;;-0.20;67.00;;;;;;2263628;55;20962;-66
2024/01/21 08:38:26;;;;;;;20.88;12.63;;;-0.20;67.10;;;;;;2494408;54;20939;-66
2024/01/21 08:40:53;;;;;;;22.15;11.05;;;-0.20;67.10;;;;;;2493105;54;20958;-66
2024/01/21 08:43:19;;;;;;;21.95;11.52;;;-0.10;67.30;;;;;;2264613;55;20974;-66
2024/01/21 08:45:45;;;;;;;20.73;12.15;;;-0.10;67.30;;;;;;2493871;54;21034;-66
2024/01/21 08:48:11;;;;;;;19.12;10.98;;;0.00;67.50;;;;;;2264320;55;20938;-66
2024/01/21 08:50:39;;;;;;;22.83;12.50;;;0.00;67.60;;;;;;2494670;54;20939;-66
2024/01/21 08:53:05;;;;;;;26.42;13.38;;;0.10;67.70;;;;;;2264610;55;20999;-65
2024/01/21 08:55:31;;;;;;;24.02;12.32;;;0.10;67.80;;;;;;2265185;55;20960;-66
2024/01/21 08:57:57;;;;;;;32.15;15.98;;;0.20;67.90;;;;;;2494430;54;21019;-66
2024/01/21 09:00:25;;;;;;;21.98;12.98;;;0.20;68.00;;;;;;2265350;55;20947;-67
2024/01/21 09:02:51;;;;;;;22.90;12.13;;;0.30;68.10;;;;;;2494132;54;21452;-66
2024/01/21 09:05:17;;;;;;;20.33;10.82;;;0.40;68.20;;;;;;2264541;55;20967;-65
2024/01/21 09:07:44;;;;;;;17.75;10.00;;;0.40;68.20;;;;;;2264850;55;21010;-66
2024/01/21 09:10:11;;;;;;;19.50;9.75;;;0.50;68.30;;;;;;2264611;55;21421;-66
2024/01/21 09:12:38;;;;;;;19.23;9.82;;;0.50;68.40;;;;;;2265228;55;21510;-66
2024/01/21 09:15:05;;;;;;;17.40;9.93;;;0.60;68.40;;;;;;2493677;54;20926;-67
2024/01/21 09:17:33;;;;;;;21.77;12.10;;;0.70;68.50;;;;;;2267420;55;20994;-66
2024/01/21 09:19:59;;;;;;;17.80;9.85;;;0.70;68.60;;;;;;2255179;56;21026;-66
2024/01/21 09:22:26;;;;;;;14.98;7.82;;;0.80;68.70;;;;;;2265137;55;20991;-67
2024/01/21 09:24:53;;;;;;;16.12;8.93;;;0.80;68.70;;;;;;2264776;55;20954;-66
2024/01/21 09:27:19;;;;;;;18.83;10.07;;;0.90;68.80;;;;;;2494628;54;21006;-66
2024/01/21 09:29:45;;;;;;;22.45;11.32;;;1.00;68.90;;;;;;2264157;55;20991;-66
2024/01/21 09:32:12;;;;;;;23.05;13.23;;;1.00;68.90;;;;;;2263910;55;21701;-66
2024/01/21 09:34:39;;;;;;;24.17;14.02;;;1.10;69.00;;;;;;2236529;56;20967;-66
2024/01/21 09:37:06;;;;;;;24.52;13.45;;;1.20;69.10;;;;;;2264156;55;21118;-67
2024/01/21 09:39:32;;;;;;;21.92;11.68;;;1.20;69.10;;;;;;2494695;54;21022;-67
2024/01/21 09:41:58;;;;;;;26.77;13.73;;;1.30;69.30;;;;;;2264810;55;21050;-66
2024/01/21 09:44:28;;;;;;;23.40;12.73;;;1.30;69.30;;;;;;2257538;56;21772;-66
2024/01/21 09:46:56;;;;;;;22.23;11.85;;;1.40;69.50;;;;;;2263931;55;20974;-66
2024/01/21 09:49:25;;;;;;;23.83;13.18;;;1.50;69.70;;;;;;2264933;55;21046;-66
2024/01/21 09:51:52;;;;;;;22.00;12.70;;;1.50;70.50;;;;;;2493773;54;20943;-67
2024/01/21 09:54:21;;;;;;;20.00;11.57;;;1.60;70.00;;;;;;2264440;55;20970;-67
2024/01/21 09:56:48;;;;;;;21.65;13.13;;;1.70;70.10;;;;;;2493491;54;20959;-66
2024/01/21 09:59:14;;;;;;;25.30;15.10;;;1.80;70.30;;;;;;2493825;54;20982;-67
2024/01/21 10:01:40;;;;;;;34.35;17.98;;;1.90;70.50;;;;;;2264912;55;20962;-66
2024/01/21 10:04:10;;;;;;;33.45;19.73;;;1.90;70.60;;;;;;2263541;55;21357;-67
2024/01/21 10:06:37;;;;;;;30.90;17.85;;;2.00;70.80;;;;;;2264798;55;21023;-67
2024/01/21 10:09:22;;;;;;;48.15;21.60;;;2.10;70.90;;;;;;2264599;55;21552;-66
2024/01/21 10:11:55;;;;;;;55.95;23.08;;;2.30;71.20;;;;;;2258844;55;21019;-67
2024/01/21 10:14:22;;;;;;;45.75;19.45;;;2.30;71.20;;;;;;2494064;54;20946;-67
2024/01/21 10:16:50;;;;;;;43.83;20.90;;;2.40;71.40;;;;;;2264141;55;20942;-67
2024/01/21 10:19:26;;;;;;;42.15;19.30;;;2.50;71.40;;;;;;2263871;55;20990;-67
2024/01/21 10:22:13;;;;;;;35.25;16.70;;;2.70;71.60;;;;;;2264331;55;21825;-68
2024/01/21 10:24:43;;;;;;;24.40;12.13;;;2.80;72.30;;;;;;2265081;55;20934;-67
2024/01/21 10:27:10;;;;;;;19.47;8.53;;;2.90;71.80;;;;;;2264016;55;21010;-68
2024/01/21 10:29:41;;;;;;;17.10;7.30;;;3.00;72.10;;;;;;2264777;55;21475;-67
2024/01/21 10:32:20;;;;;;;;;;;;;;;;;;;;;
2024/01/21 10:34:50;;;;;;;8.52;4.15;;;3.30;72.50;;;;;;2264893;55;20946;-67
2024/01/21 10:37:17;;;;;;;8.50;3.92;;;3.40;72.50;;;;;;2264428;55;20978;-68
2024/01/21 10:39:47;;;;;;;7.80;3.20;;;3.50;72.40;;;;;;2494354;54;20994;-67
2024/01/21 10:42:15;;;;;;;6.85;3.40;;;3.70;72.40;;;;;;2262840;55;20994;-67
2024/01/21 10:44:42;;;;;;;7.15;3.30;;;3.80;72.40;;;;;;2486355;54;20977;-66
2024/01/21 10:47:09;;;;;;;7.07;3.03;;;4.00;72.40;;;;;;2261283;55;20868;-67
2024/01/21 10:49:35;;;;;;;10.00;3.87;;;4.10;72.40;;;;;;2265084;55;20966;-67
2024/01/21 10:52:02;;;;;;;12.68;5.30;;;4.30;72.60;;;;;;2492170;54;21002;-67
2024/01/21 10:54:28;;;;;;;9.90;5.05;;;4.40;72.60;;;;;;2265110;55;21048;-67
2024/01/21 10:56:56;;;;;;;11.65;5.65;;;4.60;72.80;;;;;;2483658;54;21310;-67
2024/01/21 10:59:24;;;;;;;11.50;5.65;;;4.70;72.80;;;;;;2491756;54;20962;-67
2024/01/21 11:01:53;;;;;;;11.43;5.20;;;4.80;72.70;;;;;;2493738;54;20958;-67
2024/01/21 11:04:21;;;;;;;10.77;5.80;;;5.00;72.70;;;;;;2492564;54;21220;-67
2024/01/21 11:06:52;;;;;;;13.15;7.07;;;5.10;72.60;;;;;;2455057;55;20979;-66
2024/01/21 11:09:22;;;;;;;20.00;11.35;;;5.20;72.50;;;;;;2494458;54;21045;-67
2024/01/21 11:11:55;;;;;;;19.75;11.88;;;5.30;72.40;;;;;;2236317;57;21046;-68
2024/01/21 11:14:40;;;;;;;17.27;12.50;;;5.40;72.30;;;;;;2262503;55;20992;-67
2024/01/21 11:17:07;;;;;;;15.68;9.52;;;5.50;72.30;;;;;;2258190;55;21649;-66
2024/01/21 11:19:54;;;;;;;13.40;8.23;;;5.60;72.70;;;;;;2262652;55;20966;-68
2024/01/21 11:22:23;;;;;;;12.90;6.93;;;5.70;72.60;;;;;;2487790;54;21632;-68
2024/01/21 11:24:54;;;;;;;9.07;5.85;;;5.70;72.90;;;;;;2264992;55;21437;-67
2024/01/21 11:27:21;;;;;;;11.30;6.75;;;5.80;72.90;;;;;;2262212;55;21416;-67
2024/01/21 11:29:48;;;;;;;9.65;6.12;;;5.90;72.80;;;;;;2260971;55;20997;-67
2024/01/21 11:32:28;;;;;;;10.48;6.72;;;5.90;72.70;;;;;;2260747;55;20998;-67
2024/01/21 11:34:55;;;;;;;10.70;6.20;;;6.00;72.80;;;;;;2494398;54;21022;-67
2024/01/21 11:37:22;;;;;;;12.82;7.95;;;6.10;73.00;;;;;;2494324;54;20955;-67
2024/01/21 11:39:52;;;;;;;12.57;7.60;;;6.20;73.90;;;;;;2265295;55;20994;-67
2024/01/21 11:42:18;;;;;;;12.88;7.10;;;6.20;73.20;;;;;;2263908;55;20954;-67
2024/01/21 11:44:47;;;;;;;10.85;6.18;;;6.30;73.50;;;;;;2264694;55;20990;-67
2024/01/21 11:47:14;;;;;;;9.32;6.20;;;6.40;73.60;;;;;;2493507;54;20986;-68
2024/01/21 11:49:41;;;;;;;10.85;6.87;;;6.40;73.60;;;;;;2493698;54;21006;-67
2024/01/21 11:52:08;;;;;;;10.43;6.18;;;6.50;73.70;;;;;;2264027;55;21456;-68
2024/01/21 11:54:39;;;;;;;9.85;6.07;;;6.60;73.80;;;;;;2264185;55;20948;-68
2024/01/21 11:57:08;;;;;;;9.77;5.57;;;6.70;74.00;;;;;;2493912;54;20931;-67
2024/01/21 11:59:35;;;;;;;11.68;5.30;;;6.80;74.10;;;;;;2493687;54;21801;-68
2024/01/21 12:02:02;;;;;;;6.65;3.42;;;6.80;74.30;;;;;;2487171;53;20972;-67
2024/01/21 12:04:28;;;;;;;7.10;2.90;;;6.90;74.30;;;;;;2487896;54;21037;-66
2024/01/21 12:06:56;;;;;;;7.10;3.17;;;7.00;74.30;;;;;;2494159;54;20978;-68
2024/01/21 12:09:22;;;;;;;7.65;3.50;;;7.10;74.40;;;;;;2494079;54;21014;-67
2024/01/21 12:11:49;;;;;;;8.25;4.57;;;7.20;74.40;;;;;;2264308;55;20959;-67
2024/01/21 12:14:16;;;;;;;12.23;7.00;;;7.30;74.50;;;;;;2493287;54;20990;-67
2024/01/21 12:16:42;;;;;;;13.50;8.30;;;7.40;74.60;;;;;;2265003;55;21045;-67
2024/01/21 12:19:10;;;;;;;10.48;7.00;;;7.50;74.70;;;;;;2264025;55;21034;-67
2024/01/21 12:21:36;;;;;;;7.93;5.22;;;7.60;74.80;;;;;;2494386;54;21243;-68
2024/01/21 12:24:03;;;;;;;5.65;4.07;;;7.70;74.90;;;;;;2264729;55;21534;-68
2024/01/21 12:26:30;;;;;;;8.95;4.03;;;7.70;74.80;;;;;;2494266;54;22224;-67
2024/01/21 12:29:00;;;;;;;7.47;4.45;;;7.80;74.90;;;;;;2494308;54;21006;-67
2024/01/21 12:31:29;;;;;;;6.75;3.42;;;7.90;74.80;;;;;;2265152;55;20970;-67
2024/01/21 12:33:56;;;;;;;5.68;3.10;;;8.00;75.00;;;;;;2492259;54;21021;-68
2024/01/21 12:36:25;;;;;;;5.30;3.10;;;8.10;75.20;;;;;;2235417;57;20910;-67
2024/01/21 12:38:53;;;;;;;7.70;2.83;;;8.20;75.10;;;;;;2494792;54;20954;-66